Flight Briefing for CPX438

Departure Arrival
Philadelphia International Airport (KPHL)
Click to view FAA NOTAMS
Chicago/Rockford International Airport (KRFD)
Click to view FAA NOTAMS
Departure Time Arrival Time
N/A N/A
Aircraft Distance
B757-200SF 643nm
Departure METAR Arrival METAR
KPHL 152054Z 21013G21KT 10SM BKN085 OVC250 16/04 A2963 RMK AO2 SLP033 T01610039 56017 KRFD 152054Z 32015KT 10SM BKN250 M09/M14 A2999 RMK AO2 SLP171 T10891144 58005
Suggested Route
PTW SARAA RAV PSB J60 JOT QUOTE


View recent IFR Routes data
Notes



Charts and Procedures

Charts for KPHL
No chart available
Charts for KRFD
No chart available

Ventusky Weather